Time;durP1;ratioP1;P1;durP2;ratioP2;P2;SDS_P1;SDS_P2;PMS_P1;PMS_P2;Temp;Humidity;BMP_temperature;BMP_pressure;BME280_temperature;BME280_humidity;BME280_pressure;Samples;Min_cycle;Max_cycle;Signal;HPM_P1;HPM_P2
2023/12/29 00:02:16;;;;;;;6.43;2.03;;;11.90;99.90;;;;;;6139762;23;20017;-37
2023/12/29 00:04:42;;;;;;;8.50;2.08;;;11.90;99.90;;;;;;6140069;23;20531;-37
2023/12/29 00:07:08;;;;;;;9.23;2.50;;;11.90;99.90;;;;;;6139630;23;20005;-36
2023/12/29 00:09:40;;;;;;;5.47;1.90;;;11.90;99.90;;;;;;6140623;23;20009;-38
2023/12/29 00:12:06;;;;;;;10.48;1.80;;;12.00;99.90;;;;;;6139281;23;20674;-39
2023/12/29 00:14:32;;;;;;;9.13;2.30;;;12.00;99.90;;;;;;6139404;23;20040;-36
2023/12/29 00:16:58;;;;;;;8.45;2.58;;;12.00;99.90;;;;;;6140314;23;20056;-36
2023/12/29 00:19:23;;;;;;;6.93;1.83;;;12.00;99.90;;;;;;6140274;23;20005;-38
2023/12/29 00:21:49;;;;;;;11.90;1.70;;;12.00;99.90;;;;;;6140226;23;20056;-35
2023/12/29 00:24:14;;;;;;;7.72;1.73;;;12.00;99.90;;;;;;6139581;23;20092;-36
2023/12/29 00:26:40;;;;;;;8.50;1.90;;;12.00;99.90;;;;;;6140907;23;20013;-37
2023/12/29 00:29:06;;;;;;;11.05;2.90;;;12.00;99.90;;;;;;6139201;23;20093;-38
2023/12/29 00:31:32;;;;;;;5.95;1.65;;;12.00;99.90;;;;;;6139563;23;20367;-37
2023/12/29 00:33:58;;;;;;;13.38;2.38;;;11.90;99.90;;;;;;6140558;23;20525;-37
2023/12/29 00:36:24;;;;;;;5.18;1.73;;;11.90;99.90;;;;;;6140701;23;20021;-37
2023/12/29 00:38:49;;;;;;;5.30;1.65;;;11.80;99.90;;;;;;6141060;23;20080;-38
2023/12/29 00:41:15;;;;;;;8.57;2.22;;;11.70;99.90;;;;;;6139652;23;20049;-37
2023/12/29 00:43:40;;;;;;;9.73;2.13;;;11.70;99.90;;;;;;6140479;23;20429;-37
2023/12/29 00:46:06;;;;;;;5.53;1.63;;;11.70;99.90;;;;;;6140156;23;20028;-35
2023/12/29 00:48:32;;;;;;;8.55;1.90;;;11.70;99.90;;;;;;6140496;23;20484;-37
2023/12/29 00:50:58;;;;;;;9.43;2.13;;;11.70;99.90;;;;;;6140852;23;20432;-37
2023/12/29 00:53:23;;;;;;;7.57;2.17;;;11.70;99.90;;;;;;6138809;23;20031;-35
2023/12/29 00:55:49;;;;;;;8.38;1.95;;;11.70;99.90;;;;;;6140055;23;20002;-37
2023/12/29 00:58:15;;;;;;;5.97;1.70;;;11.70;99.90;;;;;;6138897;23;20174;-36
2023/12/29 01:00:40;;;;;;;11.52;2.17;;;11.70;99.90;;;;;;6139237;23;20016;-37
2023/12/29 01:03:06;;;;;;;9.90;2.03;;;11.80;99.90;;;;;;6139574;23;20096;-36
2023/12/29 01:05:32;;;;;;;9.02;1.90;;;11.80;99.90;;;;;;6140053;23;20199;-43
2023/12/29 01:07:57;;;;;;;7.40;1.95;;;11.80;99.90;;;;;;6139706;23;20009;-39
2023/12/29 01:10:23;;;;;;;7.85;2.60;;;11.80;99.90;;;;;;6138707;23;20704;-38
2023/12/29 01:12:49;;;;;;;6.60;1.88;;;11.90;99.90;;;;;;6139605;23;20005;-38
2023/12/29 01:15:14;;;;;;;8.68;1.75;;;11.90;99.90;;;;;;6138512;23;20018;-37
2023/12/29 01:17:40;;;;;;;8.93;2.13;;;11.90;99.90;;;;;;6139938;23;20012;-36
2023/12/29 01:20:06;;;;;;;8.35;1.90;;;11.90;99.90;;;;;;6140494;23;20021;-37
2023/12/29 01:22:32;;;;;;;6.15;1.80;;;11.90;99.90;;;;;;6138998;23;20017;-36
2023/12/29 01:25:00;;;;;;;8.20;2.13;;;11.90;99.90;;;;;;6139617;23;20001;-36
2023/12/29 01:27:27;;;;;;;6.88;1.70;;;11.90;99.90;;;;;;6138297;23;20720;-37
2023/12/29 01:29:55;;;;;;;7.88;1.85;;;11.80;99.90;;;;;;6136815;23;20020;-36
2023/12/29 01:32:21;;;;;;;10.25;2.65;;;11.80;99.90;;;;;;6136028;23;20009;-37
2023/12/29 01:34:47;;;;;;;9.52;2.00;;;11.80;99.90;;;;;;6137276;23;20009;-35
2023/12/29 01:37:12;;;;;;;10.20;2.63;;;11.80;99.90;;;;;;6136557;23;20005;-37
2023/12/29 01:39:39;;;;;;;8.70;1.90;;;11.80;99.90;;;;;;6137212;23;20520;-37
2023/12/29 01:42:05;;;;;;;6.47;1.52;;;11.70;99.90;;;;;;6137201;23;20017;-36
2023/12/29 01:44:31;;;;;;;8.10;1.90;;;11.80;99.90;;;;;;6139234;23;20027;-37
2023/12/29 01:47:00;;;;;;;6.45;1.83;;;11.70;99.90;;;;;;6139243;23;20716;-36
2023/12/29 01:49:27;;;;;;;7.40;1.67;;;11.80;99.90;;;;;;6138208;23;20005;-36
2023/12/29 01:51:58;;;;;;;7.93;1.83;;;11.70;99.90;;;;;;6138741;23;20484;-36
2023/12/29 01:54:27;;;;;;;9.13;2.58;;;11.70;99.90;;;;;;6140136;23;20012;-36
2023/12/29 01:56:57;;;;;;;5.93;1.70;;;11.70;99.90;;;;;;6142556;23;20037;-36
2023/12/29 01:59:25;;;;;;;8.77;2.08;;;11.70;99.90;;;;;;6140346;23;20006;-35
2023/12/29 02:01:51;;;;;;;15.05;2.30;;;11.70;99.90;;;;;;6139268;23;20025;-36
2023/12/29 02:04:18;;;;;;;11.30;1.92;;;11.70;99.90;;;;;;6137631;23;20096;-36
2023/12/29 02:06:43;;;;;;;5.22;2.08;;;11.70;99.90;;;;;;6139179;23;20075;-37
2023/12/29 02:09:09;;;;;;;6.10;1.63;;;11.70;99.90;;;;;;6139517;23;20620;-36
2023/12/29 02:11:35;;;;;;;7.97;2.08;;;11.70;99.90;;;;;;6139146;23;20805;-37
2023/12/29 02:14:04;;;;;;;7.25;1.85;;;11.70;99.90;;;;;;6138812;23;20016;-37
2023/12/29 02:16:40;;;;;;;6.07;1.50;;;11.70;99.90;;;;;;6139054;23;20016;-37
2023/12/29 02:19:33;;;;;;;7.45;2.17;;;11.70;99.90;;;;;;6139303;23;20005;-38
2023/12/29 02:21:58;;;;;;;6.13;1.90;;;11.60;99.90;;;;;;6139612;23;20013;-37
2023/12/29 02:24:24;;;;;;;7.85;2.20;;;11.60;99.90;;;;;;6137652;23;20001;-37
2023/12/29 02:26:55;;;;;;;6.88;1.83;;;11.60;99.90;;;;;;6138017;23;20012;-37
2023/12/29 02:29:24;;;;;;;8.15;1.90;;;11.60;99.90;;;;;;6138447;23;20013;-36
2023/12/29 02:31:54;;;;;;;6.60;1.98;;;11.60;99.90;;;;;;6139793;23;20009;-36
2023/12/29 02:34:21;;;;;;;6.85;2.15;;;11.50;99.90;;;;;;6138195;23;20002;-37
2023/12/29 02:36:48;;;;;;;7.57;1.67;;;11.50;99.90;;;;;;6138825;23;20040;-37
2023/12/29 02:39:14;;;;;;;5.30;1.90;;;11.50;99.90;;;;;;6137642;23;20033;-37
2023/12/29 02:41:40;;;;;;;7.85;2.47;;;11.50;99.90;;;;;;6138844;23;20095;-36
2023/12/29 02:44:05;;;;;;;5.70;1.67;;;11.40;99.90;;;;;;6139545;23;20009;-37
2023/12/29 02:46:31;;;;;;;8.32;1.98;;;11.40;99.90;;;;;;6137781;23;20067;-36
2023/12/29 02:48:57;;;;;;;7.25;1.90;;;11.40;99.90;;;;;;6137186;23;20084;-36
2023/12/29 02:51:25;;;;;;;5.28;1.55;;;11.40;99.90;;;;;;6137692;23;20005;-37
2023/12/29 02:53:51;;;;;;;5.50;1.73;;;11.40;99.90;;;;;;6137690;23;20010;-36
2023/12/29 02:56:16;;;;;;;5.97;2.42;;;11.40;99.90;;;;;;6137055;23;20012;-36
2023/12/29 02:58:42;;;;;;;7.03;2.25;;;11.40;99.90;;;;;;6137795;23;20084;-37
2023/12/29 03:01:08;;;;;;;7.00;1.83;;;11.40;99.90;;;;;;6135926;23;20049;-37
2023/12/29 03:03:34;;;;;;;6.70;2.22;;;11.40;99.90;;;;;;6137666;23;20100;-37
2023/12/29 03:06:00;;;;;;;8.50;1.95;;;11.40;99.90;;;;;;6137114;23;20463;-38
2023/12/29 03:08:25;;;;;;;8.88;1.98;;;11.40;99.90;;;;;;6137680;23;20006;-36
2023/12/29 03:10:51;;;;;;;7.75;1.77;;;11.40;99.90;;;;;;6139168;23;20098;-37
2023/12/29 03:13:16;;;;;;;8.80;2.58;;;11.40;99.90;;;;;;6135720;23;20739;-38
2023/12/29 03:15:42;;;;;;;8.30;2.20;;;11.50;99.90;;;;;;6138496;23;20009;-36
2023/12/29 03:18:08;;;;;;;7.93;2.22;;;11.40;99.90;;;;;;6138117;23;20084;-37
2023/12/29 03:20:33;;;;;;;8.55;1.98;;;11.40;99.90;;;;;;6137403;23;20056;-37
2023/12/29 03:22:59;;;;;;;5.18;1.60;;;11.40;99.90;;;;;;6138651;23;20017;-37
2023/12/29 03:25:24;;;;;;;6.82;1.67;;;11.40;99.90;;;;;;6137964;23;20002;-37
2023/12/29 03:27:50;;;;;;;8.25;1.80;;;11.40;99.90;;;;;;6137983;23;20010;-36
2023/12/29 03:30:16;;;;;;;10.23;1.98;;;11.50;99.90;;;;;;6137916;23;20010;-37
2023/12/29 03:32:41;;;;;;;8.55;2.25;;;11.50;99.90;;;;;;6138012;23;20562;-37
2023/12/29 03:35:07;;;;;;;4.35;1.50;;;11.50;99.90;;;;;;6137592;23;20009;-36
2023/12/29 03:37:33;;;;;;;6.75;1.80;;;11.50;99.90;;;;;;6138291;23;20006;-35
2023/12/29 03:39:58;;;;;;;8.07;1.67;;;11.50;99.90;;;;;;6137786;23;20006;-35
2023/12/29 03:42:24;;;;;;;9.38;2.30;;;11.50;99.90;;;;;;6136987;23;20017;-36
2023/12/29 03:44:49;;;;;;;7.28;2.08;;;11.50;99.90;;;;;;6138536;23;20076;-36
2023/12/29 03:47:15;;;;;;;6.78;1.90;;;11.50;99.90;;;;;;6137476;23;20524;-38
2023/12/29 03:49:40;;;;;;;5.75;1.75;;;11.50;99.90;;;;;;6137370;23;20009;-37
2023/12/29 03:52:06;;;;;;;10.00;3.17;;;11.50;99.90;;;;;;6137259;23;20013;-37
2023/12/29 03:54:31;;;;;;;9.57;2.60;;;11.50;99.90;;;;;;6137994;23;20701;-37
2023/12/29 03:56:57;;;;;;;13.02;2.33;;;11.60;99.90;;;;;;6138121;23;20899;-47
2023/12/29 03:59:23;;;;;;;8.57;2.38;;;11.60;99.90;;;;;;6138147;23;20317;-38
2023/12/29 04:01:48;;;;;;;10.93;1.95;;;11.60;99.90;;;;;;6138451;23;20017;-43
2023/12/29 04:04:14;;;;;;;7.45;2.22;;;11.60;99.90;;;;;;6137717;23;20009;-36
2023/12/29 04:06:39;;;;;;;14.00;3.10;;;11.60;99.90;;;;;;6137856;23;20370;-37
2023/12/29 04:09:05;;;;;;;10.90;2.60;;;11.60;99.90;;;;;;6138382;23;20001;-35
2023/12/29 04:11:30;;;;;;;7.18;2.38;;;11.60;99.90;;;;;;6137532;23;20421;-36
2023/12/29 04:13:56;;;;;;;16.33;2.65;;;11.70;99.90;;;;;;6137732;23;20373;-35
2023/12/29 04:16:22;;;;;;;10.38;2.53;;;11.70;99.90;;;;;;6139280;23;20016;-36
2023/12/29 04:18:47;;;;;;;11.68;2.55;;;11.70;99.90;;;;;;6139882;23;20012;-37
2023/12/29 04:21:14;;;;;;;9.98;2.33;;;11.70;99.90;;;;;;6138759;23;20013;-35
2023/12/29 04:23:41;;;;;;;13.68;2.38;;;11.70;99.90;;;;;;6139206;23;20009;-35
2023/12/29 04:26:07;;;;;;;10.43;2.33;;;11.70;99.90;;;;;;6139130;23;20002;-37
2023/12/29 04:28:33;;;;;;;10.88;2.50;;;11.70;99.90;;;;;;6139107;23;20731;-36
2023/12/29 04:30:58;;;;;;;9.02;2.83;;;11.70;99.90;;;;;;6138313;23;20368;-37
2023/12/29 04:33:24;;;;;;;10.15;2.58;;;11.70;99.90;;;;;;6138482;23;20020;-36
2023/12/29 04:35:49;;;;;;;9.98;2.40;;;11.70;99.90;;;;;;6139744;23;20060;-37
2023/12/29 04:38:18;;;;;;;10.38;1.98;;;11.70;99.90;;;;;;6138852;23;20036;-37
2023/12/29 04:40:43;;;;;;;12.30;2.50;;;11.70;99.90;;;;;;6139443;23;20005;-37
2023/12/29 04:43:09;;;;;;;8.80;2.17;;;11.70;99.90;;;;;;6139676;23;20374;-36
2023/12/29 04:45:34;;;;;;;12.23;2.78;;;11.70;99.90;;;;;;6138975;23;20028;-37
2023/12/29 04:48:00;;;;;;;10.82;2.65;;;11.60;99.90;;;;;;6139111;23;20010;-35
2023/12/29 04:50:25;;;;;;;8.52;2.30;;;11.70;99.90;;;;;;6139356;23;20647;-36
2023/12/29 04:52:51;;;;;;;7.45;2.00;;;11.70;99.90;;;;;;6139301;23;20017;-37
2023/12/29 04:55:17;;;;;;;8.60;2.05;;;11.70;99.90;;;;;;6138418;23;20496;-36
2023/12/29 04:57:42;;;;;;;15.02;3.00;;;11.70;99.90;;;;;;6139055;23;20071;-35
2023/12/29 05:00:08;;;;;;;9.98;2.75;;;11.70;99.90;;;;;;6138377;23;20002;-37
2023/12/29 05:02:34;;;;;;;11.80;2.35;;;11.70;99.90;;;;;;6138611;23;20317;-36
2023/12/29 05:04:59;;;;;;;9.30;2.28;;;11.70;99.90;;;;;;6139384;23;20010;-37
2023/12/29 05:07:26;;;;;;;11.43;2.80;;;11.70;99.90;;;;;;6138892;23;20437;-36
2023/12/29 05:09:52;;;;;;;12.13;3.70;;;11.70;99.90;;;;;;6139181;23;20916;-36
2023/12/29 05:12:18;;;;;;;15.82;4.22;;;11.70;99.90;;;;;;6138583;23;20005;-38
2023/12/29 05:14:47;;;;;;;10.93;2.67;;;11.70;99.90;;;;;;6138831;23;20081;-36
2023/12/29 05:17:12;;;;;;;10.73;2.47;;;11.70;99.90;;;;;;6138980;23;20009;-35
2023/12/29 05:19:38;;;;;;;13.57;3.92;;;11.70;99.90;;;;;;6138144;23;20784;-36
2023/12/29 05:22:03;;;;;;;9.73;2.42;;;11.70;99.90;;;;;;6138627;23;20017;-36
2023/12/29 05:24:29;;;;;;;11.00;2.63;;;11.70;99.90;;;;;;6138428;23;20026;-36
2023/12/29 05:26:55;;;;;;;14.10;2.63;;;11.70;99.90;;;;;;6138235;23;20714;-37
2023/12/29 05:29:20;;;;;;;9.20;2.50;;;11.60;99.90;;;;;;6139314;23;20006;-37
2023/12/29 05:31:46;;;;;;;8.93;2.50;;;11.60;99.90;;;;;;6139044;23;20006;-37
2023/12/29 05:34:11;;;;;;;9.93;2.50;;;11.60;99.90;;;;;;6138040;23;20017;-38
2023/12/29 05:36:37;;;;;;;12.25;2.60;;;11.60;99.90;;;;;;6138248;23;20010;-38
2023/12/29 05:39:03;;;;;;;14.77;2.58;;;11.60;99.90;;;;;;6139174;23;20012;-36
2023/12/29 05:41:29;;;;;;;9.65;2.40;;;11.60;99.90;;;;;;6138536;23;20088;-36
2023/12/29 05:43:58;;;;;;;12.50;3.00;;;11.60;99.90;;;;;;6138402;23;20398;-36
2023/12/29 05:46:24;;;;;;;10.98;2.63;;;11.60;99.90;;;;;;6139471;23;20028;-37
2023/12/29 05:48:52;;;;;;;12.88;3.40;;;11.60;99.90;;;;;;6113963;23;20477;-37
2023/12/29 05:51:20;;;;;;;12.98;2.70;;;11.60;99.90;;;;;;6137987;23;20005;-36
2023/12/29 05:53:45;;;;;;;11.32;2.60;;;11.50;99.90;;;;;;6139619;23;20012;-35
2023/12/29 05:56:13;;;;;;;9.90;2.70;;;11.50;99.90;;;;;;6139143;23;20132;-43
2023/12/29 05:58:43;;;;;;;8.93;2.25;;;11.50;99.90;;;;;;6140471;23;20079;-36
2023/12/29 06:01:09;;;;;;;11.32;2.90;;;11.50;99.90;;;;;;6139026;23;20071;-36
2023/12/29 06:03:35;;;;;;;7.95;2.50;;;11.50;99.90;;;;;;6139191;23;20034;-37
2023/12/29 06:06:01;;;;;;;9.18;2.17;;;11.50;99.90;;;;;;6138431;23;20028;-36
2023/12/29 06:08:27;;;;;;;9.77;2.50;;;11.50;99.90;;;;;;6139912;23;20009;-35
2023/12/29 06:10:52;;;;;;;12.85;2.70;;;11.50;99.90;;;;;;6138955;23;20310;-36
2023/12/29 06:13:18;;;;;;;11.45;2.67;;;11.50;99.90;;;;;;6139283;23;20017;-37
2023/12/29 06:15:44;;;;;;;8.13;1.90;;;11.40;99.90;;;;;;6140015;23;20599;-37
2023/12/29 06:18:09;;;;;;;12.13;2.83;;;11.50;99.90;;;;;;6137641;23;20012;-37
2023/12/29 06:20:35;;;;;;;9.13;2.08;;;11.50;99.90;;;;;;6138449;23;20332;-37
2023/12/29 06:23:00;;;;;;;12.10;2.70;;;11.40;99.90;;;;;;6138137;23;20014;-37
2023/12/29 06:25:26;;;;;;;11.57;2.95;;;11.40;99.90;;;;;;6138217;23;20013;-37
2023/12/29 06:27:52;;;;;;;14.20;2.80;;;11.40;99.90;;;;;;6139008;23;20084;-36
2023/12/29 06:30:17;;;;;;;8.13;1.85;;;11.40;99.90;;;;;;6138216;23;20002;-36
2023/12/29 06:32:43;;;;;;;12.77;2.17;;;11.30;99.90;;;;;;6138744;23;20009;-36
2023/12/29 06:35:11;;;;;;;8.98;2.28;;;11.30;99.90;;;;;;6138295;23;20029;-37
2023/12/29 06:37:38;;;;;;;7.35;2.20;;;11.30;99.90;;;;;;6137755;23;20054;-37
2023/12/29 06:40:06;;;;;;;11.80;2.60;;;11.30;99.90;;;;;;6137442;23;20005;-37
2023/12/29 06:42:32;;;;;;;14.32;2.45;;;11.30;99.90;;;;;;6137329;23;20467;-47
2023/12/29 06:44:58;;;;;;;13.00;2.45;;;11.30;99.90;;;;;;6138020;23;20021;-35
2023/12/29 06:47:23;;;;;;;10.68;2.10;;;11.30;99.90;;;;;;6138223;23;20061;-36
2023/12/29 06:49:52;;;;;;;8.80;2.08;;;11.30;99.90;;;;;;6138815;23;20009;-37
2023/12/29 06:52:20;;;;;;;8.20;1.90;;;11.30;99.90;;;;;;6137148;23;20056;-36
2023/12/29 06:54:46;;;;;;;9.13;1.75;;;11.30;99.90;;;;;;6139159;23;20005;-43
2023/12/29 06:57:14;;;;;;;8.55;2.00;;;11.30;99.90;;;;;;6139726;23;20012;-36
2023/12/29 06:59:40;;;;;;;9.07;2.20;;;11.40;99.90;;;;;;6139473;23;20100;-37
2023/12/29 07:02:05;;;;;;;12.63;2.50;;;11.40;99.90;;;;;;6139761;23;20113;-43
2023/12/29 07:04:31;;;;;;;10.13;1.92;;;11.30;99.90;;;;;;6138582;23;20027;-36
2023/12/29 07:06:57;;;;;;;7.50;2.33;;;11.40;99.90;;;;;;6137714;23;20005;-37
2023/12/29 07:09:22;;;;;;;11.07;2.17;;;11.30;99.90;;;;;;6137518;23;20013;-37
2023/12/29 07:11:49;;;;;;;8.40;2.03;;;11.30;99.90;;;;;;6138199;23;20017;-37
2023/12/29 07:14:15;;;;;;;8.45;2.15;;;11.20;99.90;;;;;;6138022;23;20028;-37
2023/12/29 07:16:41;;;;;;;8.70;2.15;;;11.10;99.90;;;;;;6138530;23;20487;-37
2023/12/29 07:19:07;;;;;;;8.23;2.10;;;11.10;99.90;;;;;;6139385;23;20075;-38
2023/12/29 07:21:34;;;;;;;7.75;1.80;;;11.00;99.90;;;;;;6138589;23;20017;-38
2023/12/29 07:23:59;;;;;;;14.20;2.90;;;11.00;99.90;;;;;;6139426;23;20291;-38
2023/12/29 07:26:25;;;;;;;10.90;2.67;;;10.90;99.90;;;;;;6138144;23;20491;-38
2023/12/29 07:28:54;;;;;;;7.40;1.80;;;10.80;99.90;;;;;;6138404;23;20001;-39
2023/12/29 07:31:20;;;;;;;5.70;1.80;;;10.70;99.90;;;;;;6137359;23;20325;-38
2023/12/29 07:33:46;;;;;;;5.78;1.63;;;10.70;99.90;;;;;;6137538;23;20754;-38
2023/12/29 07:36:12;;;;;;;4.35;1.63;;;10.70;99.90;;;;;;6138354;23;20078;-38
2023/12/29 07:38:38;;;;;;;2.15;1.30;;;10.70;99.90;;;;;;6138499;23;20337;-39
2023/12/29 07:41:03;;;;;;;6.28;1.73;;;10.70;99.90;;;;;;6136966;23;20040;-40
2023/12/29 07:43:29;;;;;;;6.70;1.63;;;10.70;99.90;;;;;;6138731;23;20008;-39
2023/12/29 07:45:55;;;;;;;5.00;1.50;;;10.70;99.90;;;;;;6138778;23;20033;-41
2023/12/29 07:48:21;;;;;;;4.22;1.40;;;10.70;99.90;;;;;;6140366;23;20879;-36
2023/12/29 07:50:46;;;;;;;6.40;1.75;;;10.70;99.90;;;;;;6141114;23;20009;-37
2023/12/29 07:53:12;;;;;;;7.80;2.13;;;10.70;99.90;;;;;;6142079;23;20070;-37
2023/12/29 07:55:41;;;;;;;4.78;1.55;;;10.70;99.90;;;;;;6141027;23;20012;-37
2023/12/29 07:58:10;;;;;;;6.88;1.95;;;10.80;99.90;;;;;;6140073;23;20037;-37
2023/12/29 08:00:38;;;;;;;4.53;1.95;;;10.70;99.90;;;;;;6141122;23;20089;-37
2023/12/29 08:03:05;;;;;;;5.30;1.77;;;10.70;99.90;;;;;;6139680;23;20017;-37
2023/12/29 08:05:33;;;;;;;4.97;2.03;;;10.70;99.90;;;;;;6141254;23;20005;-37
2023/12/29 08:08:04;;;;;;;4.03;2.38;;;10.80;99.90;;;;;;6140435;23;20016;-37
2023/12/29 08:10:31;;;;;;;7.35;2.80;;;10.80;99.90;;;;;;6139976;23;20001;-37
2023/12/29 08:12:57;;;;;;;6.45;3.40;;;10.80;99.90;;;;;;6139916;23;20024;-38
2023/12/29 08:15:23;;;;;;;8.68;3.55;;;10.80;99.90;;;;;;6140083;23;20033;-38
2023/12/29 08:17:49;;;;;;;9.10;3.30;;;10.80;99.90;;;;;;6141280;23;20095;-37
2023/12/29 08:20:15;;;;;;;4.38;2.33;;;10.80;99.90;;;;;;6140235;23;20085;-37
2023/12/29 08:22:42;;;;;;;5.82;2.20;;;10.80;99.90;;;;;;6140026;23;20120;-38
2023/12/29 08:25:08;;;;;;;7.00;2.85;;;10.80;99.90;;;;;;6139675;23;20017;-36
2023/12/29 08:27:34;;;;;;;7.03;2.20;;;10.80;99.90;;;;;;6139890;23;20013;-37
2023/12/29 08:29:59;;;;;;;5.13;2.08;;;10.90;99.90;;;;;;6139928;23;20333;-37
2023/12/29 08:32:25;;;;;;;5.55;1.95;;;10.90;99.90;;;;;;6140765;23;20180;-38
2023/12/29 08:34:51;;;;;;;6.40;1.90;;;10.90;99.90;;;;;;6141289;23;20001;-37
2023/12/29 08:37:19;;;;;;;4.65;1.65;;;10.90;99.90;;;;;;6140333;23;20754;-37
2023/12/29 08:39:46;;;;;;;5.07;1.77;;;10.90;99.90;;;;;;6140792;23;20005;-38
2023/12/29 08:42:12;;;;;;;4.45;1.63;;;10.90;99.90;;;;;;6140141;23;20590;-37
2023/12/29 08:44:38;;;;;;;6.85;1.88;;;10.90;99.90;;;;;;6140129;23;20076;-37
2023/12/29 08:47:07;;;;;;;8.63;2.25;;;10.90;99.90;;;;;;6139740;23;20689;-36
2023/12/29 08:49:34;;;;;;;6.18;2.40;;;10.90;99.90;;;;;;6138895;23;20033;-37
2023/12/29 08:52:00;;;;;;;7.05;1.70;;;10.90;99.90;;;;;;6139093;23;20016;-37
2023/12/29 08:54:25;;;;;;;5.53;1.80;;;10.90;99.90;;;;;;6140244;23;20104;-36
2023/12/29 08:56:51;;;;;;;6.63;1.67;;;11.00;99.90;;;;;;6140029;23;20107;-37
2023/12/29 08:59:16;;;;;;;7.78;2.15;;;11.00;99.90;;;;;;6138998;23;20012;-38
2023/12/29 09:01:42;;;;;;;4.45;1.50;;;11.00;99.90;;;;;;6136496;23;20032;-36
2023/12/29 09:04:08;;;;;;;6.35;1.52;;;11.00;99.90;;;;;;6140118;23;20012;-37
2023/12/29 09:06:34;;;;;;;5.15;1.60;;;11.00;99.90;;;;;;6140176;23;20421;-36
2023/12/29 09:09:00;;;;;;;3.45;1.58;;;11.00;99.90;;;;;;6140030;23;20006;-36
2023/12/29 09:11:26;;;;;;;4.03;1.38;;;11.10;99.90;;;;;;6139611;23;20475;-41
2023/12/29 09:13:52;;;;;;;4.43;1.30;;;11.10;99.90;;;;;;6134102;23;20009;-37
2023/12/29 09:16:18;;;;;;;3.88;1.80;;;11.10;99.90;;;;;;6137767;23;20189;-37
2023/12/29 09:18:44;;;;;;;5.57;1.50;;;11.20;99.90;;;;;;6138651;23;20052;-37
2023/12/29 09:21:09;;;;;;;5.15;1.95;;;11.10;99.90;;;;;;6138500;23;20008;-37
2023/12/29 09:23:37;;;;;;;4.90;1.50;;;11.10;99.90;;;;;;6139188;23;20079;-36
2023/12/29 09:26:03;;;;;;;4.82;1.55;;;11.10;99.90;;;;;;6139069;23;20052;-36
2023/12/29 09:28:29;;;;;;;3.72;1.50;;;11.20;99.90;;;;;;6137929;23;20555;-36
2023/12/29 09:30:55;;;;;;;6.05;1.88;;;11.20;99.90;;;;;;6138777;23;20005;-38
2023/12/29 09:33:22;;;;;;;4.18;1.40;;;11.20;99.90;;;;;;6138233;23;20010;-36
2023/12/29 09:35:48;;;;;;;6.07;1.80;;;11.20;99.90;;;;;;6138723;23;20001;-36
2023/12/29 09:38:14;;;;;;;3.55;1.50;;;11.30;99.90;;;;;;6138433;23;20092;-37
2023/12/29 09:40:43;;;;;;;3.20;1.40;;;11.30;99.90;;;;;;6139054;23;20098;-37
2023/12/29 09:43:09;;;;;;;6.07;1.70;;;11.30;99.90;;;;;;6112501;23;20017;-36
2023/12/29 09:45:40;;;;;;;3.10;1.23;;;11.30;99.90;;;;;;6112828;23;20016;-37
2023/12/29 09:48:16;;;;;;;7.13;1.63;;;11.30;99.90;;;;;;6138480;23;20516;-37
2023/12/29 09:50:43;;;;;;;3.17;1.17;;;11.30;99.90;;;;;;6139610;23;20731;-36
2023/12/29 09:53:11;;;;;;;2.85;1.15;;;11.30;99.90;;;;;;6138394;23;20005;-37
2023/12/29 09:55:40;;;;;;;3.53;1.30;;;11.40;99.90;;;;;;6138417;23;20057;-39
2023/12/29 09:58:08;;;;;;;4.63;1.38;;;11.40;99.90;;;;;;6139737;23;20012;-36
2023/12/29 10:00:34;;;;;;;2.45;1.10;;;11.40;99.90;;;;;;6139976;23;20056;-37
2023/12/29 10:03:00;;;;;;;4.35;1.63;;;11.40;99.90;;;;;;6137398;23;20123;-37
2023/12/29 10:05:26;;;;;;;4.72;1.40;;;11.40;99.90;;;;;;6137944;23;20432;-37
2023/12/29 10:07:56;;;;;;;4.70;1.40;;;11.50;99.90;;;;;;6138537;23;20013;-44
2023/12/29 10:10:24;;;;;;;3.67;1.40;;;11.50;99.90;;;;;;6138336;23;20767;-36
2023/12/29 10:12:51;;;;;;;3.70;1.00;;;11.50;99.90;;;;;;6138856;23;20006;-35
2023/12/29 10:15:40;;;;;;;2.70;1.00;;;11.50;99.90;;;;;;6137792;23;20060;-36
2023/12/29 10:18:26;;;;;;;5.22;1.30;;;11.60;99.90;;;;;;6137153;23;20005;-35
2023/12/29 10:21:26;;;;;;;2.72;1.17;;;11.60;99.90;;;;;;6138504;23;20080;-37
2023/12/29 10:24:03;;;;;;;3.20;1.30;;;11.60;99.90;;;;;;6137339;23;20010;-36
2023/12/29 10:26:29;;;;;;;3.08;1.55;;;11.70;99.90;;;;;;6138190;23;20089;-37
2023/12/29 10:28:57;;;;;;;3.08;1.27;;;11.70;99.90;;;;;;6138212;23;20108;-36
2023/12/29 10:31:23;;;;;;;2.03;1.30;;;11.70;99.90;;;;;;6137851;23;20088;-36
2023/12/29 10:33:51;;;;;;;1.73;1.15;;;11.60;99.90;;;;;;6138531;23;20180;-36
2023/12/29 10:36:16;;;;;;;3.83;1.40;;;11.70;99.90;;;;;;6137571;23;20012;-37
2023/12/29 10:38:43;;;;;;;3.30;1.23;;;11.70;99.90;;;;;;6138343;23;20001;-38
2023/12/29 10:41:21;;;;;;;1.48;1.30;;;11.70;99.90;;;;;;6138682;23;20148;-46
2023/12/29 10:43:51;;;;;;;1.65;1.27;;;11.70;99.90;;;;;;6138132;23;20097;-37
2023/12/29 10:46:17;;;;;;;2.42;1.55;;;11.70;99.90;;;;;;6138061;23;20040;-35
2023/12/29 10:48:43;;;;;;;1.60;1.30;;;11.80;99.90;;;;;;6138148;23;20056;-36
2023/12/29 10:51:10;;;;;;;1.98;1.08;;;11.80;99.90;;;;;;6137859;23;20056;-37
2023/12/29 10:53:36;;;;;;;2.00;1.00;;;11.80;99.90;;;;;;6137675;23;20063;-36
2023/12/29 10:56:02;;;;;;;2.53;1.10;;;11.90;99.90;;;;;;6137729;23;20008;-36
2023/12/29 10:58:29;;;;;;;2.75;1.17;;;11.90;99.90;;;;;;6138084;23;20002;-37
2023/12/29 11:01:01;;;;;;;2.33;1.15;;;11.90;99.90;;;;;;6138720;23;20005;-37
2023/12/29 11:03:27;;;;;;;3.45;1.55;;;12.00;99.90;;;;;;6138811;23;20084;-37
2023/12/29 11:06:02;;;;;;;1.48;1.10;;;12.00;99.90;;;;;;6138146;23;20882;-38
2023/12/29 11:08:28;;;;;;;3.22;1.10;;;12.00;99.90;;;;;;6138695;23;20068;-38
2023/12/29 11:10:55;;;;;;;3.70;1.10;;;12.00;99.90;;;;;;6138507;23;20006;-38
2023/12/29 11:13:21;;;;;;;3.50;1.10;;;12.00;99.90;;;;;;6136777;23;20048;-37
2023/12/29 11:15:47;;;;;;;1.42;1.20;;;12.00;99.90;;;;;;6137252;23;20020;-38
2023/12/29 11:18:15;;;;;;;3.78;1.30;;;12.00;99.90;;;;;;6136583;23;20033;-37
2023/12/29 11:20:43;;;;;;;2.97;1.30;;;12.00;99.90;;;;;;6138248;23;20024;-37
2023/12/29 11:23:14;;;;;;;3.95;1.50;;;12.00;99.90;;;;;;6136849;23;20017;-37
2023/12/29 11:25:44;;;;;;;1.20;1.03;;;12.00;99.90;;;;;;6140234;23;20010;-36
2023/12/29 11:28:12;;;;;;;4.88;1.98;;;12.10;99.90;;;;;;6139496;23;20333;-36
2023/12/29 11:30:39;;;;;;;5.05;1.92;;;12.10;99.90;;;;;;6140172;23;20001;-38
2023/12/29 11:33:18;;;;;;;4.15;1.40;;;12.10;99.90;;;;;;6138594;23;20064;-37
2023/12/29 11:35:54;;;;;;;3.40;1.40;;;12.20;99.90;;;;;;6140672;23;20081;-37
2023/12/29 11:38:35;;;;;;;3.97;1.40;;;12.20;99.90;;;;;;6139899;23;20013;-38
2023/12/29 11:41:31;;;;;;;4.05;1.50;;;12.20;99.90;;;;;;6138810;23;20005;-37
2023/12/29 11:43:57;;;;;;;4.22;2.00;;;12.20;99.90;;;;;;6123530;23;20510;-36
2023/12/29 11:46:35;;;;;;;7.80;1.83;;;12.20;99.90;;;;;;6138870;23;20013;-40
2023/12/29 11:49:05;;;;;;;5.88;1.50;;;12.20;99.90;;;;;;6138705;23;20079;-37
2023/12/29 11:51:44;;;;;;;4.72;1.50;;;12.10;99.90;;;;;;6139181;23;20072;-38
2023/12/29 11:54:10;;;;;;;4.55;1.40;;;12.20;99.90;;;;;;6138072;23;20008;-37
2023/12/29 11:56:38;;;;;;;4.40;1.50;;;12.10;99.90;;;;;;6140010;23;20006;-37
2023/12/29 11:59:20;;;;;;;7.25;1.75;;;12.10;99.90;;;;;;6139455;23;20013;-36
2023/12/29 12:02:02;;;;;;;4.18;1.50;;;12.10;99.90;;;;;;6139207;23;20088;-38
2023/12/29 12:04:35;;;;;;;5.97;1.50;;;12.20;99.90;;;;;;6139857;23;20013;-38
2023/12/29 12:07:01;;;;;;;5.97;1.42;;;12.20;99.90;;;;;;6137699;23;20005;-36
2023/12/29 12:09:26;;;;;;;5.15;1.50;;;12.10;99.90;;;;;;6138412;23;20025;-36
2023/12/29 12:11:52;;;;;;;6.28;1.52;;;12.20;99.90;;;;;;6139892;23;20005;-37
2023/12/29 12:14:49;;;;;;;5.88;1.35;;;12.10;99.90;;;;;;6139151;23;20062;-36
2023/12/29 12:17:31;;;;;;;7.20;1.73;;;12.20;99.90;;;;;;6138836;23;20389;-36
2023/12/29 12:20:12;;;;;;;5.88;2.03;;;12.20;99.90;;;;;;6139229;23;20701;-36
2023/12/29 12:22:39;;;;;;;5.22;1.27;;;12.20;99.90;;;;;;6139741;23;20710;-39
2023/12/29 12:25:06;;;;;;;6.60;1.70;;;12.20;99.90;;;;;;6139611;23;20052;-37
2023/12/29 12:27:32;;;;;;;9.70;2.22;;;12.20;99.90;;;;;;6139184;23;20005;-36
2023/12/29 12:29:59;;;;;;;8.98;1.77;;;12.20;99.90;;;;;;6138788;23;20006;-37
2023/12/29 12:32:29;;;;;;;5.13;1.85;;;12.20;99.90;;;;;;6139570;23;20060;-36
2023/12/29 12:34:56;;;;;;;6.80;1.63;;;12.20;99.90;;;;;;6140074;23;20051;-40
2023/12/29 12:37:27;;;;;;;8.48;2.55;;;12.20;99.90;;;;;;6138959;23;20336;-36
2023/12/29 12:39:53;;;;;;;10.70;2.67;;;12.20;99.90;;;;;;6138856;23;20009;-37
2023/12/29 12:42:22;;;;;;;5.40;1.30;;;12.20;99.90;;;;;;6137949;23;20017;-37
2023/12/29 12:44:55;;;;;;;3.35;1.20;;;12.20;99.90;;;;;;6138699;23;20087;-37
2023/12/29 12:47:25;;;;;;;;;;;12.20;99.90;;;;;;6139547;23;20013;-37